Time,TemperatureF,DewpointF,PressureIn,WindDirection,WindDirectionDegrees,WindSpeedMPH,WindSpeedGustMPH,Humidity,HourlyPrecipIn,Conditions,Clouds,dailyrainin,SoftwareType,DateUTC
2013-03-17 00:02:00,38.0,34.0,30.03,NNE,18,0.0,1.0,87,0.00,,,0.04,,2013-03-17 05:02:00,
2013-03-17 00:12:00,38.0,34.0,30.03,NNE,18,0.0,1.0,87,0.00,,,0.04,,2013-03-17 05:12:00,
2013-03-17 00:22:00,38.0,34.0,30.02,NNE,22,3.0,3.0,87,0.00,,,0.04,,2013-03-17 05:22:00,
2013-03-17 00:32:00,38.0,34.0,30.02,North,5,3.0,5.0,87,0.00,,,0.04,,2013-03-17 05:32:00,
2013-03-17 00:42:00,38.0,34.0,30.02,North,5,3.0,5.0,87,0.00,,,0.04,,2013-03-17 05:42:00,
2013-03-17 00:52:00,38.0,34.0,30.01,NNE,26,3.0,4.0,87,0.00,,,0.04,,2013-03-17 05:52:00,
2013-03-17 01:02:00,38.0,34.0,30.01,NNE,24,5.0,8.0,87,0.00,,,0.04,,2013-03-17 06:02:00,
2013-03-17 01:12:00,38.0,34.0,30.01,NNE,24,5.0,8.0,87,0.00,,,0.04,,2013-03-17 06:12:00,
2013-03-17 01:22:00,38.0,34.0,29.99,NE,37,4.0,5.0,87,0.00,,,0.04,,2013-03-17 06:22:00,
2013-03-17 01:32:00,38.0,34.0,29.99,NNE,30,5.0,8.0,86,0.00,,,0.04,,2013-03-17 06:32:00,
2013-03-17 01:42:00,38.0,34.0,29.99,NNE,30,5.0,8.0,86,0.00,,,0.04,,2013-03-17 06:42:00,
2013-03-17 01:52:00,38.0,34.0,29.98,NE,38,10.0,10.0,86,0.00,,,0.04,,2013-03-17 06:52:00,
2013-03-17 02:02:00,37.0,34.0,29.98,NE,34,8.0,9.0,87,0.01,,,0.05,,2013-03-17 07:02:00,
2013-03-17 02:12:00,37.0,34.0,29.98,NE,34,8.0,9.0,87,0.01,,,0.05,,2013-03-17 07:12:00,
2013-03-17 02:22:00,37.0,34.0,30.04,North,355,2.0,3.0,88,0.01,,,0.05,,2013-03-17 07:22:00,
2013-03-17 02:32:00,37.0,34.0,30.04,North,360,2.0,2.0,88,0.01,,,0.05,,2013-03-17 07:32:00,
2013-03-17 02:42:00,37.0,34.0,30.04,North,360,2.0,2.0,88,0.01,,,0.05,,2013-03-17 07:42:00,
2013-03-17 02:52:00,37.0,34.0,30.04,NNE,13,4.0,9.0,87,0.01,,,0.05,,2013-03-17 07:52:00,
2013-03-17 03:02:00,37.0,34.0,30.04,NNE,28,3.0,5.0,87,0.00,,,0.05,,2013-03-17 08:02:00,
2013-03-17 03:12:00,36.0,33.0,30.05,NNE,32,3.0,4.0,88,0.03,,,0.08,,2013-03-17 08:12:00,
2013-03-17 03:22:00,36.0,33.0,30.05,NNE,32,3.0,4.0,88,0.03,,,0.08,,2013-03-17 08:22:00,
2013-03-17 03:32:00,36.0,33.0,30.05,NE,38,3.0,3.0,88,0.06,,,0.11,,2013-03-17 08:32:00,
2013-03-17 03:42:00,36.0,33.0,30.05,NE,38,3.0,3.0,88,0.06,,,0.11,,2013-03-17 08:42:00,
2013-03-17 03:52:00,36.0,33.0,30.07,NNE,28,3.0,3.0,90,0.12,,,0.17,,2013-03-17 08:52:00,
2013-03-17 04:02:00,36.0,34.0,30.07,North,10,3.0,4.0,91,0.15,,,0.20,,2013-03-17 09:02:00,
2013-03-17 04:12:00,36.0,34.0,30.07,North,10,3.0,4.0,91,0.15,,,0.20,,2013-03-17 09:12:00,
2013-03-17 04:22:00,36.0,34.0,30.05,North,360,4.0,4.0,92,0.16,,,0.24,,2013-03-17 09:22:00,
2013-03-17 04:32:00,36.0,34.0,30.05,North,355,3.0,3.0,93,0.15,,,0.26,,2013-03-17 09:32:00,
2013-03-17 04:42:00,36.0,34.0,30.05,North,355,3.0,3.0,93,0.15,,,0.26,,2013-03-17 09:42:00,
2013-03-17 04:53:00,35.0,33.0,30.06,NE,34,4.0,5.0,93,0.14,,,0.30,,2013-03-17 09:53:00,
2013-03-17 05:03:00,35.0,33.0,30.06,NNE,28,3.0,5.0,93,0.13,,,0.33,,2013-03-17 10:03:00,
2013-03-17 05:13:00,35.0,33.0,30.06,NNE,28,3.0,5.0,93,0.13,,,0.33,,2013-03-17 10:13:00,
2013-03-17 05:23:00,35.0,33.0,30.05,NNE,24,5.0,6.0,93,0.13,,,0.37,,2013-03-17 10:23:00,
2013-03-17 05:33:00,35.0,33.0,30.05,NNE,28,5.0,8.0,93,0.12,,,0.38,,2013-03-17 10:33:00,
2013-03-17 05:42:00,35.0,33.0,30.05,NNE,28,5.0,8.0,93,0.12,,,0.38,,2013-03-17 10:42:00,
2013-03-17 05:52:00,35.0,33.0,30.09,NNW,344,4.0,6.0,94,0.10,,,0.40,,2013-03-17 10:52:00,
2013-03-17 06:02:00,35.0,33.0,30.09,NE,37,4.0,9.0,94,0.08,,,0.41,,2013-03-17 11:02:00,
2013-03-17 06:12:00,35.0,33.0,30.09,NE,37,4.0,9.0,94,0.08,,,0.41,,2013-03-17 11:12:00,
2013-03-17 06:22:00,34.0,32.0,30.09,North,5,5.0,7.0,94,0.06,,,0.43,,2013-03-17 11:22:00,
2013-03-17 06:32:00,34.0,32.0,30.09,North,11,5.0,5.0,94,0.05,,,0.43,,2013-03-17 11:32:00,
2013-03-17 06:42:00,34.0,32.0,30.09,North,11,5.0,5.0,94,0.05,,,0.43,,2013-03-17 11:42:00,
2013-03-17 06:52:00,34.0,32.0,30.10,NE,39,5.0,6.0,94,0.05,,,0.45,,2013-03-17 11:52:00,
2013-03-17 07:02:00,34.0,32.0,30.10,NNE,32,5.0,9.0,94,0.06,,,0.47,,2013-03-17 12:02:00,
2013-03-17 07:12:00,34.0,32.0,30.10,NNE,32,5.0,9.0,94,0.06,,,0.47,,2013-03-17 12:12:00,
2013-03-17 07:22:00,34.0,32.0,30.08,NNE,23,6.0,9.0,94,0.08,,,0.51,,2013-03-17 12:22:00,
2013-03-17 07:32:00,34.0,32.0,30.08,NNE,26,6.0,9.0,94,0.09,,,0.52,,2013-03-17 12:32:00,
2013-03-17 07:42:00,34.0,32.0,30.08,NNE,26,6.0,9.0,94,0.09,,,0.52,,2013-03-17 12:42:00,
2013-03-17 07:52:00,33.0,31.0,30.08,NE,36,3.0,4.0,94,0.07,,,0.52,,2013-03-17 12:52:00,
2013-03-17 08:02:00,33.0,31.0,30.08,North,5,4.0,5.0,94,0.06,,,0.53,,2013-03-17 13:02:00,
2013-03-17 08:12:00,33.0,31.0,30.08,North,5,4.0,5.0,94,0.06,,,0.53,,2013-03-17 13:12:00,
2013-03-17 08:22:00,33.0,31.0,30.11,NE,38,3.0,3.0,94,0.04,,,0.54,,2013-03-17 13:22:00,
2013-03-17 08:32:00,33.0,31.0,30.11,NNE,25,3.0,5.0,94,0.04,,,0.55,,2013-03-17 13:32:00,
2013-03-17 08:42:00,33.0,31.0,30.11,NNE,25,3.0,5.0,94,0.04,,,0.55,,2013-03-17 13:42:00,
2013-03-17 08:52:00,33.0,31.0,30.11,North,360,3.0,3.0,94,0.08,,,0.60,,2013-03-17 13:52:00,
2013-03-17 09:02:00,33.0,31.0,30.11,NNE,33,2.0,3.0,94,0.08,,,0.61,,2013-03-17 14:02:00,
2013-03-17 09:12:00,33.0,31.0,30.11,NNE,33,2.0,3.0,94,0.08,,,0.61,,2013-03-17 14:12:00,
2013-03-17 09:22:00,33.0,32.0,30.11,NE,34,3.0,3.0,95,0.07,,,0.61,,2013-03-17 14:22:00,
2013-03-17 09:32:00,33.0,32.0,30.11,NNE,32,3.0,3.0,95,0.06,,,0.61,,2013-03-17 14:32:00,
2013-03-17 09:42:00,33.0,32.0,30.11,NNE,32,3.0,3.0,95,0.06,,,0.61,,2013-03-17 14:42:00,
2013-03-17 09:53:00,33.0,32.0,30.10,NNE,33,4.0,4.0,95,0.02,,,0.62,,2013-03-17 14:53:00,
2013-03-17 10:02:00,33.0,32.0,30.10,NE,36,3.0,3.0,95,0.02,,,0.63,,2013-03-17 15:02:00,
2013-03-17 10:12:00,33.0,32.0,30.10,NE,36,3.0,3.0,95,0.02,,,0.63,,2013-03-17 15:12:00,
2013-03-17 10:23:00,33.0,32.0,30.11,NNE,25,2.0,3.0,95,0.04,,,0.65,,2013-03-17 15:23:00,
2013-03-17 10:33:00,33.0,32.0,30.11,NNE,32,3.0,3.0,95,0.04,,,0.65,,2013-03-17 15:33:00,
2013-03-17 10:42:00,33.0,32.0,30.11,NNE,32,3.0,3.0,95,0.04,,,0.65,,2013-03-17 15:42:00,
2013-03-17 10:53:00,33.0,32.0,30.10,NE,47,3.0,4.0,95,0.06,,,0.68,,2013-03-17 15:53:00,
2013-03-17 11:03:00,33.0,32.0,30.10,NNE,27,4.0,5.0,95,0.07,,,0.69,,2013-03-17 16:03:00,
2013-03-17 11:12:00,33.0,32.0,30.10,NNE,27,4.0,5.0,95,0.07,,,0.69,,2013-03-17 16:12:00,
2013-03-17 11:22:00,34.0,33.0,30.10,NNE,31,3.0,3.0,96,0.07,,,0.72,,2013-03-17 16:22:00,
2013-03-17 11:33:00,34.0,33.0,30.10,NE,42,3.0,6.0,96,0.08,,,0.73,,2013-03-17 16:33:00,
2013-03-17 11:42:00,34.0,33.0,30.10,NE,42,3.0,6.0,96,0.08,,,0.73,,2013-03-17 16:42:00,
2013-03-17 11:52:00,34.0,33.0,30.12,NE,38,2.0,3.0,96,0.08,,,0.76,,2013-03-17 16:52:00,
2013-03-17 12:02:00,34.0,33.0,30.12,NNE,29,3.0,3.0,96,0.09,,,0.78,,2013-03-17 17:02:00,
2013-03-17 12:12:00,34.0,33.0,30.12,NNE,29,3.0,3.0,96,0.09,,,0.78,,2013-03-17 17:12:00,
2013-03-17 12:22:00,34.0,33.0,30.10,NE,38,2.0,2.0,96,0.10,,,0.82,,2013-03-17 17:22:00,
2013-03-17 12:33:00,34.0,33.0,30.10,NNE,30,2.0,2.0,96,0.10,,,0.83,,2013-03-17 17:33:00,
2013-03-17 12:42:00,34.0,33.0,30.10,NNE,30,2.0,2.0,96,0.10,,,0.83,,2013-03-17 17:42:00,
2013-03-17 12:53:00,35.0,34.0,30.09,NE,36,3.0,3.0,96,0.09,,,0.85,,2013-03-17 17:53:00,
2013-03-17 13:02:00,35.0,34.0,30.09,NE,48,3.0,3.0,96,0.08,,,0.86,,2013-03-17 18:02:00,
2013-03-17 13:12:00,35.0,34.0,30.09,NE,48,3.0,3.0,96,0.08,,,0.86,,2013-03-17 18:12:00,
2013-03-17 13:22:00,36.0,35.0,30.06,NE,35,5.0,5.0,96,0.07,,,0.88,,2013-03-17 18:22:00,
2013-03-17 13:32:00,36.0,35.0,30.06,NE,46,3.0,4.0,96,0.05,,,0.88,,2013-03-17 18:32:00,
2013-03-17 13:42:00,36.0,35.0,30.06,NE,46,3.0,4.0,96,0.05,,,0.88,,2013-03-17 18:42:00,
2013-03-17 13:52:00,37.0,36.0,30.03,NE,51,4.0,9.0,96,0.05,,,0.90,,2013-03-17 18:52:00,
2013-03-17 14:02:00,37.0,36.0,30.03,NNE,32,5.0,9.0,96,0.05,,,0.91,,2013-03-17 19:02:00,
2013-03-17 14:12:00,37.0,36.0,30.03,NNE,32,5.0,9.0,96,0.05,,,0.91,,2013-03-17 19:12:00,
2013-03-17 14:22:00,38.0,37.0,30.01,ENE,74,3.0,4.0,96,0.05,,,0.93,,2013-03-17 19:22:00,
2013-03-17 14:33:00,38.0,37.0,30.01,NE,49,3.0,5.0,96,0.05,,,0.93,,2013-03-17 19:33:00,
2013-03-17 14:42:00,38.0,37.0,30.01,NE,49,3.0,5.0,96,0.05,,,0.93,,2013-03-17 19:42:00,
2013-03-17 14:53:00,38.0,37.0,30.00,ENE,63,4.0,6.0,95,0.05,,,0.95,,2013-03-17 19:53:00,
2013-03-17 15:02:00,38.0,36.0,30.00,NE,42,5.0,10.0,94,0.05,,,0.96,,2013-03-17 20:02:00,
2013-03-17 15:12:00,38.0,36.0,30.00,NE,42,5.0,10.0,94,0.05,,,0.96,,2013-03-17 20:12:00,
2013-03-17 15:22:00,38.0,36.0,29.98,ENE,61,5.0,5.0,93,0.04,,,0.97,,2013-03-17 20:22:00,
2013-03-17 15:32:00,38.0,36.0,29.98,NE,40,3.0,3.0,93,0.05,,,0.98,,2013-03-17 20:32:00,
2013-03-17 15:42:00,38.0,36.0,29.98,NE,40,3.0,3.0,93,0.05,,,0.98,,2013-03-17 20:42:00,
2013-03-17 15:52:00,39.0,37.0,29.97,NE,55,2.0,3.0,92,0.04,,,0.99,,2013-03-17 20:52:00,
2013-03-17 16:02:00,39.0,37.0,29.97,ENE,58,2.0,2.0,91,0.03,,,0.99,,2013-03-17 21:02:00,
2013-03-17 16:12:00,39.0,37.0,29.97,ENE,58,2.0,2.0,91,0.03,,,0.99,,2013-03-17 21:12:00,
2013-03-17 16:22:00,39.0,37.0,29.97,ENE,57,6.0,6.0,91,0.02,,,0.99,,2013-03-17 21:22:00,
2013-03-17 16:33:00,39.0,36.0,29.98,ENE,57,5.0,5.0,90,0.02,,,1.00,,2013-03-17 21:33:00,
2013-03-17 16:42:00,39.0,36.0,29.98,ENE,57,5.0,5.0,90,0.02,,,1.00,,2013-03-17 21:42:00,
2013-03-17 16:52:00,38.0,35.0,29.99,NE,45,3.0,7.0,89,0.02,,,1.01,,2013-03-17 21:52:00,
2013-03-17 17:03:00,38.0,35.0,29.99,ENE,61,5.0,6.0,89,0.02,,,1.01,,2013-03-17 22:03:00,
2013-03-17 17:12:00,38.0,35.0,29.97,NE,50,3.0,4.0,90,0.04,,,1.03,,2013-03-17 22:12:00,
2013-03-17 17:23:00,38.0,35.0,29.97,NE,50,3.0,4.0,90,0.04,,,1.03,,2013-03-17 22:23:00,
2013-03-17 17:33:00,38.0,36.0,29.95,NE,53,4.0,6.0,91,0.06,,,1.06,,2013-03-17 22:33:00,
2013-03-17 17:42:00,38.0,36.0,29.95,NE,53,4.0,6.0,91,0.06,,,1.06,,2013-03-17 22:42:00,
2013-03-17 17:52:00,38.0,36.0,29.94,NE,45,2.0,5.0,92,0.09,,,1.10,,2013-03-17 22:52:00,
2013-03-17 18:02:00,38.0,36.0,29.94,NE,50,4.0,4.0,92,0.10,,,1.11,,2013-03-17 23:02:00,
2013-03-17 18:12:00,38.0,36.0,29.94,NE,50,4.0,4.0,92,0.10,,,1.11,,2013-03-17 23:12:00,
2013-03-17 18:22:00,38.0,36.0,29.98,NE,50,5.0,5.0,92,0.08,,,1.13,,2013-03-17 23:22:00,
2013-03-17 18:32:00,38.0,36.0,29.98,ENE,67,2.0,3.0,93,0.10,,,1.16,,2013-03-17 23:32:00,
2013-03-17 18:42:00,38.0,36.0,29.98,ENE,67,2.0,3.0,93,0.10,,,1.16,,2013-03-17 23:42:00,
2013-03-17 18:53:00,38.0,36.0,29.96,NE,56,5.0,6.0,93,0.14,,,1.23,,2013-03-17 23:53:00,
2013-03-17 19:03:00,37.0,35.0,29.96,NE,53,6.0,9.0,94,0.17,,,1.28,,2013-03-18 00:03:00,
2013-03-17 19:12:00,37.0,35.0,29.96,NE,53,6.0,9.0,94,0.17,,,1.28,,2013-03-18 00:12:00,
2013-03-17 19:22:00,37.0,35.0,29.90,ESE,105,2.0,8.0,94,0.18,,,1.31,,2013-03-18 00:22:00,
2013-03-17 19:33:00,37.0,35.0,29.90,NE,47,6.0,6.0,94,0.16,,,1.32,,2013-03-18 00:33:00,
2013-03-17 19:42:00,37.0,35.0,29.90,NE,47,6.0,6.0,94,0.16,,,1.32,,2013-03-18 00:42:00,
2013-03-17 19:52:00,37.0,35.0,29.92,ENE,66,1.0,10.0,94,0.11,,,1.34,,2013-03-18 00:52:00,
2013-03-17 20:01:00,37.0,35.0,29.92,NE,49,4.0,8.0,94,0.09,,,1.36,,2013-03-18 01:01:00,
2013-03-17 20:12:00,37.0,35.0,29.92,NE,49,4.0,8.0,94,0.09,,,1.36,,2013-03-18 01:12:00,
2013-03-17 20:22:00,37.0,36.0,29.92,NE,38,7.0,10.0,95,0.06,,,1.36,,2013-03-18 01:22:00,
2013-03-17 20:32:00,38.0,37.0,29.92,ENE,61,4.0,4.0,95,0.05,,,1.36,,2013-03-18 01:32:00,
2013-03-17 20:42:00,38.0,37.0,29.92,ENE,61,4.0,4.0,95,0.05,,,1.36,,2013-03-18 01:42:00,
2013-03-17 20:52:00,38.0,37.0,29.89,NE,54,2.0,4.0,95,0.04,,,1.38,,2013-03-18 01:52:00,
2013-03-17 21:02:00,38.0,37.0,29.89,NE,39,8.0,9.0,95,0.08,,,1.41,,2013-03-18 02:02:00,
2013-03-17 21:12:00,38.0,37.0,29.89,NE,39,8.0,9.0,95,0.08,,,1.41,,2013-03-18 02:12:00,
2013-03-17 21:22:00,38.0,37.0,29.86,NE,53,3.0,3.0,95,0.12,,,1.46,,2013-03-18 02:22:00,
2013-03-17 21:32:00,38.0,37.0,29.87,NE,44,4.0,7.0,96,0.14,,,1.48,,2013-03-18 02:32:00,
2013-03-17 21:42:00,38.0,37.0,29.87,NE,44,4.0,7.0,96,0.14,,,1.48,,2013-03-18 02:42:00,
2013-03-17 21:52:00,38.0,37.0,29.87,ENE,61,8.0,8.0,96,0.19,,,1.57,,2013-03-18 02:52:00,
2013-03-17 22:02:00,38.0,37.0,29.89,NE,50,3.0,3.0,96,0.20,,,1.62,,2013-03-18 03:02:00,
2013-03-17 22:11:00,38.0,37.0,29.89,NE,50,3.0,3.0,96,0.20,,,1.62,,2013-03-18 03:11:00,
2013-03-17 22:22:00,38.0,37.0,29.89,NE,52,5.0,5.0,96,0.25,,,1.71,,2013-03-18 03:22:00,
2013-03-17 22:33:00,38.0,37.0,29.88,ENE,67,3.0,3.0,96,0.28,,,1.76,,2013-03-18 03:33:00,
2013-03-17 22:42:00,38.0,37.0,29.88,ENE,67,3.0,3.0,96,0.28,,,1.76,,2013-03-18 03:42:00,
2013-03-17 22:53:00,38.0,37.0,29.89,ENE,59,2.0,3.0,96,0.31,,,1.87,,2013-03-18 03:53:00,
2013-03-17 23:03:00,38.0,37.0,29.86,NE,36,0.0,3.0,96,0.30,,,1.91,,2013-03-18 04:03:00,
2013-03-17 23:13:00,38.0,37.0,29.86,NE,36,0.0,3.0,96,0.30,,,1.91,,2013-03-18 04:13:00,
2013-03-17 23:23:00,38.0,37.0,29.87,NE,52,2.0,5.0,96,0.33,,,2.03,,2013-03-18 04:23:00,
2013-03-17 23:33:00,38.0,37.0,29.86,NNE,27,3.0,3.0,96,0.33,,,2.08,,2013-03-18 04:33:00,
2013-03-17 23:42:00,38.0,37.0,29.86,NNE,27,3.0,3.0,96,0.33,,,2.08,,2013-03-18 04:42:00,
2013-03-17 23:53:00,38.0,37.0,29.86,ENE,58,3.0,3.0,96,0.38,,,2.24,,2013-03-18 04:53:00,